Americus, GA

1:40 AM EST on December 18, 2014 (GMT -0500)
RAWS AMERICUS/PLAINS GA US | Change Station
CLOSE
Current Station
Personal Weather Station
Location: Americus, GA
Elevation: 456 ft
Nearby Weather Stations

Elev 456 ft 32.11 °N, 84.18 °W | Updated 37 minutes ago

Clear
Clear
42 °F
Feels Like 42 °F
N
3
Wind Variable Wind from NW
Gusts 5.0 mph

Today
High -- | Low -- °F
--% Chance of Precip.
Yesterday
High -- | Low -- °F
Precip. -- in
7:31 AM 5:35 PM
Waning Crescent, 16% visible
Pressure 30.16 in
Visibility 10.0 miles
Clouds Clear
Windchill 42 °F
Dew Point 38 °F
Humidity 85%
Rainfall 0.00 in
Snow Depth Not available.
UV 0 out of 12
Pollen 1.20 out of 12
Air Quality Not available.
Flu Activity Not available.
METAR KACJ 180615Z AUTO 00000KT 10SM CLR 05/03 A3016 RMK AO2

More Conditions Fewer Conditions

Pressure 30.16 in
Visibility 10.0 miles
Clouds Clear
Windchill 42 °F
Dew Point 38 °F
Humidity 85%
Rainfall 0.00 in
Snow Depth Not available.
UV 0 out of 12
Pollen 1.20 out of 12
Air Quality Not available.
Flu Activity Not available.
METAR KACJ 180615Z AUTO 00000KT 10SM CLR 05/03 A3016 RMK AO2

More Conditions Fewer Conditions

10-Day Weather Forecast

Almanac

Astronomy

Dec. 18, 2014 Rise Set
Actual Time
Civil Twilight
Nautical Twilight
Astronomical Twilight
Moon
Length of Visible Light
Length of Day
Tomorrow will be .
, % of the Moon is Illuminated

Today's Extremes

State Highs State Lows

Community

WunderPhotos

Upload Photos

1,778,897 photos uploaded!

WunderBlogs® & News

Nearby

Air Quality

  Air Quality AQ Index Pollutant
Not available.

Snow Depth

Station Depth Elevation

Earthquake Activity

City Distance Mag. Time & Date
Minimum magnitude displayed is 2.5.

Coastal Water Temperatures

Place Temperature

Nearby Weather Stations